createdAt,value
2022-11-15T00:00:31.687Z,3.50
2022-11-15T00:03:25.068Z,4.90
2022-11-15T00:06:13.366Z,4.37
2022-11-15T00:09:02.036Z,5.37
2022-11-15T00:11:49.482Z,4.57
2022-11-15T00:14:36.992Z,6.27
2022-11-15T00:17:24.469Z,5.23
2022-11-15T00:20:12.648Z,6.07
2022-11-15T00:23:00.112Z,4.50
2022-11-15T00:25:47.740Z,3.37
2022-11-15T00:28:35.246Z,4.47
2022-11-15T00:31:22.712Z,9.77
2022-11-15T00:34:11.726Z,5.07
2022-11-15T00:36:59.235Z,5.20
2022-11-15T00:39:46.687Z,4.93
2022-11-15T00:42:34.108Z,5.90
2022-11-15T00:45:21.630Z,4.27
2022-11-15T00:48:10.813Z,4.13
2022-11-15T00:50:58.913Z,3.27
2022-11-15T00:53:46.387Z,4.13
2022-11-15T00:56:33.832Z,4.27
2022-11-15T00:59:21.367Z,6.40
2022-11-15T01:02:08.872Z,3.50
2022-11-15T01:04:56.372Z,4.03
2022-11-15T01:07:43.992Z,8.80
2022-11-15T01:10:31.431Z,4.53
2022-11-15T01:13:18.998Z,9.10
2022-11-15T01:16:18.591Z,4.47
2022-11-15T01:19:06.062Z,5.17
2022-11-15T01:21:53.533Z,2.70
2022-11-15T01:24:41.002Z,5.60
2022-11-15T01:27:28.418Z,7.93
2022-11-15T01:30:16.402Z,3.57
2022-11-15T01:33:03.902Z,4.40
2022-11-15T01:35:51.371Z,3.17
2022-11-15T01:38:39.262Z,4.47
2022-11-15T01:41:33.795Z,3.13
2022-11-15T01:44:51.860Z,4.37
2022-11-15T01:47:46.357Z,3.67
2022-11-15T01:50:34.597Z,3.33
2022-11-15T01:53:26.633Z,5.47
2022-11-15T01:56:21.114Z,5.23
2022-11-15T01:59:11.266Z,3.37
2022-11-15T02:01:58.977Z,5.63
2022-11-15T02:04:49.271Z,3.27
2022-11-15T02:07:38.691Z,6.27
2022-11-15T02:10:26.823Z,8.37
2022-11-15T02:13:17.560Z,5.00
2022-11-15T02:16:23.953Z,3.83
2022-11-15T02:19:33.271Z,3.43
2022-11-15T02:22:59.002Z,3.67
2022-11-15T02:26:24.112Z,2.37
2022-11-15T02:29:53.264Z,4.47
2022-11-15T02:33:23.092Z,6.73
2022-11-15T02:37:08.171Z,4.07
2022-11-15T02:40:27.961Z,2.93
2022-11-15T02:43:47.147Z,4.70
2022-11-15T02:47:11.441Z,3.63
2022-11-15T02:50:07.605Z,4.33
2022-11-15T02:52:55.567Z,7.37
2022-11-15T02:55:51.581Z,3.23
2022-11-15T02:59:21.102Z,3.80
2022-11-15T03:02:27.087Z,2.60
2022-11-15T03:05:23.392Z,4.07
2022-11-15T03:08:52.361Z,5.80
2022-11-15T03:11:49.271Z,3.47
2022-11-15T03:14:57.365Z,4.00
2022-11-15T03:17:59.659Z,3.87
2022-11-15T03:20:50.286Z,6.07
2022-11-15T03:23:40.605Z,4.57
2022-11-15T03:26:31.228Z,3.53
2022-11-15T03:29:25.921Z,2.90
2022-11-15T03:32:21.482Z,3.50
2022-11-15T03:35:29.023Z,5.30
2022-11-15T03:38:27.278Z,4.20
2022-11-15T03:41:32.769Z,6.97
2022-11-15T03:45:10.451Z,3.73
2022-11-15T03:48:16.302Z,3.43
2022-11-15T03:51:06.165Z,6.07
2022-11-15T03:53:53.836Z,3.60
2022-11-15T03:56:41.612Z,3.13
2022-11-15T03:59:29.180Z,9.37
2022-11-15T04:02:17.276Z,4.03
2022-11-15T04:05:05.805Z,2.40
2022-11-15T04:07:53.480Z,3.27
2022-11-15T04:10:41.327Z,5.33
2022-11-15T04:13:29.043Z,3.40
2022-11-15T04:16:16.874Z,3.57
2022-11-15T04:19:23.282Z,2.67
2022-11-15T04:22:29.518Z,8.63
2022-11-15T04:25:20.666Z,3.87
2022-11-15T04:28:12.469Z,4.97
2022-11-15T04:31:00.447Z,4.47
2022-11-15T04:33:48.068Z,3.73
2022-11-15T04:36:54.096Z,3.17
2022-11-15T04:39:43.872Z,3.20
2022-11-15T04:42:31.347Z,4.47
2022-11-15T04:45:19.258Z,10.37
2022-11-15T04:48:06.737Z,6.33
2022-11-15T04:50:54.221Z,4.33
2022-11-15T04:53:41.732Z,5.47
2022-11-15T04:56:29.205Z,5.50
2022-11-15T04:59:16.671Z,5.73
2022-11-15T05:02:04.265Z,5.50
2022-11-15T05:04:51.737Z,3.87
2022-11-15T05:07:39.241Z,3.83
2022-11-15T05:10:26.667Z,3.47
2022-11-15T05:13:14.306Z,5.20
2022-11-15T05:16:01.870Z,4.03
2022-11-15T05:18:53.895Z,5.60
2022-11-15T05:21:41.940Z,5.57
2022-11-15T05:24:29.380Z,14.17
2022-11-15T05:27:17.022Z,3.47
2022-11-15T05:30:04.827Z,5.23
2022-11-15T05:32:52.310Z,5.07
2022-11-15T05:35:50.160Z,4.43
2022-11-15T05:38:38.195Z,3.70
2022-11-15T05:41:36.770Z,7.77
2022-11-15T05:44:27.429Z,6.93
2022-11-15T05:47:27.396Z,5.17
2022-11-15T05:50:19.171Z,4.27
2022-11-15T05:53:07.531Z,3.03
2022-11-15T05:55:55.176Z,4.50
2022-11-15T05:58:44.385Z,5.10
2022-11-15T06:01:32.080Z,3.80
2022-11-15T06:04:19.595Z,6.20
2022-11-15T06:07:07.135Z,4.17
2022-11-15T06:09:54.689Z,6.30
2022-11-15T06:12:42.141Z,3.87
2022-11-15T06:15:30.046Z,3.10
2022-11-15T06:18:17.476Z,7.00
2022-11-15T06:21:05.632Z,6.00
2022-11-15T06:23:53.096Z,3.53
2022-11-15T06:26:40.547Z,4.77
2022-11-15T06:29:28.008Z,10.47
2022-11-15T06:32:15.495Z,6.60
2022-11-15T06:35:03.151Z,5.73
2022-11-15T06:37:50.594Z,9.63
2022-11-15T06:40:40.796Z,12.67
2022-11-15T06:43:28.351Z,15.93
2022-11-15T06:46:15.899Z,11.87
2022-11-15T06:49:09.287Z,10.47
2022-11-15T06:51:57.416Z,8.90
2022-11-15T06:54:45.427Z,10.97
2022-11-15T06:57:33.422Z,9.30
2022-11-15T07:00:24.431Z,16.93
2022-11-15T07:03:12.256Z,12.00
2022-11-15T07:06:05.715Z,20.17
2022-11-15T07:08:54.581Z,13.17
2022-11-15T07:11:43.386Z,15.90
2022-11-15T07:14:30.776Z,15.33
2022-11-15T07:17:18.227Z,14.60
2022-11-15T07:20:06.513Z,15.27
2022-11-15T07:23:05.349Z,9.50
2022-11-15T07:25:52.917Z,14.83
2022-11-15T07:28:40.676Z,18.60
2022-11-15T07:31:28.538Z,12.23
2022-11-15T07:34:15.966Z,18.17
2022-11-15T07:37:03.465Z,16.43
2022-11-15T07:39:50.933Z,16.93
2022-11-15T07:42:53.685Z,16.43
2022-11-15T07:45:46.525Z,14.23
2022-11-15T07:48:43.232Z,11.77
2022-11-15T07:51:31.977Z,15.20
2022-11-15T07:54:19.455Z,20.03
2022-11-15T07:57:08.621Z,10.83
2022-11-15T07:59:56.197Z,14.57
2022-11-15T08:02:44.380Z,15.97
2022-11-15T08:05:33.221Z,11.03
2022-11-15T08:08:20.727Z,10.03
2022-11-15T08:11:08.227Z,13.13
2022-11-15T08:13:55.752Z,13.60
2022-11-15T08:16:43.234Z,16.73
2022-11-15T08:19:30.691Z,9.37
2022-11-15T08:22:19.043Z,12.43
2022-11-15T08:25:06.789Z,19.07
2022-11-15T08:27:57.185Z,13.80
2022-11-15T08:30:46.493Z,9.63
2022-11-15T08:33:37.008Z,9.87
2022-11-15T08:36:24.451Z,13.50
2022-11-15T08:39:13.716Z,15.97
2022-11-15T08:42:01.348Z,15.03
2022-11-15T08:44:48.816Z,16.17
2022-11-15T08:47:36.347Z,12.10
2022-11-15T08:50:24.379Z,14.00
2022-11-15T08:53:13.809Z,20.07
2022-11-15T08:56:01.586Z,13.33
2022-11-15T08:58:49.072Z,16.40
2022-11-15T09:01:36.604Z,18.47
2022-11-15T09:04:24.291Z,14.00
2022-11-15T09:07:12.956Z,18.53
2022-11-15T09:10:01.233Z,13.90
2022-11-15T09:12:51.697Z,11.80
2022-11-15T09:15:39.204Z,16.90
2022-11-15T09:18:26.843Z,14.90
2022-11-15T09:21:15.163Z,13.83
2022-11-15T09:24:03.422Z,17.90
2022-11-15T09:26:52.517Z,18.47
2022-11-15T09:29:40.078Z,11.10
2022-11-15T09:32:35.016Z,16.90
2022-11-15T09:35:26.417Z,19.90
2022-11-15T09:38:13.914Z,17.27
2022-11-15T09:41:15.829Z,12.60
2022-11-15T09:44:42.293Z,17.90
2022-11-15T09:47:52.692Z,16.50
2022-11-15T09:51:01.340Z,13.07
2022-11-15T09:57:17.447Z,15.87
2022-11-15T10:00:48.339Z,18.07
2022-11-15T10:03:43.302Z,14.77
2022-11-15T10:06:35.918Z,14.47
2022-11-15T10:09:33.187Z,20.33
2022-11-15T10:12:20.788Z,14.03
2022-11-15T10:15:16.908Z,14.17
2022-11-15T10:18:17.912Z,14.57
2022-11-15T10:21:21.654Z,18.20
2022-11-15T10:24:16.982Z,18.60
2022-11-15T10:27:18.868Z,17.47
2022-11-15T10:30:15.058Z,15.50
2022-11-15T10:33:34.931Z,14.93
2022-11-15T10:36:27.652Z,15.83
2022-11-15T10:39:15.536Z,12.77
2022-11-15T10:42:29.620Z,17.70
2022-11-15T10:45:29.945Z,12.70
2022-11-15T10:48:25.471Z,13.87
2022-11-15T10:51:30.972Z,12.47
2022-11-15T10:54:44.482Z,10.23
2022-11-15T10:57:37.491Z,11.57
2022-11-15T11:00:33.943Z,9.00
2022-11-15T11:03:41.199Z,15.63
2022-11-15T11:06:29.890Z,9.70
2022-11-15T11:09:37.721Z,11.87
2022-11-15T11:12:34.632Z,17.50
2022-11-15T11:15:28.992Z,8.40
2022-11-15T11:18:48.509Z,13.97
2022-11-15T11:21:47.906Z,15.17
2022-11-15T11:24:49.002Z,13.87
2022-11-15T11:28:06.674Z,14.80
2022-11-15T11:31:13.382Z,7.53
2022-11-15T11:34:20.878Z,7.30
2022-11-15T11:37:30.507Z,24.50
2022-11-15T11:40:31.282Z,8.00
2022-11-15T11:43:46.441Z,11.60
2022-11-15T11:47:19.724Z,12.40
2022-11-15T11:50:21.823Z,10.07
2022-11-15T11:53:49.636Z,9.57
2022-11-15T11:56:43.712Z,13.03
2022-11-15T12:00:00.947Z,9.67
2022-11-15T12:03:19.565Z,12.00
2022-11-15T12:06:51.968Z,22.17
2022-11-15T12:10:06.767Z,9.47
2022-11-15T12:13:11.469Z,7.57
2022-11-15T12:16:18.553Z,8.80
2022-11-15T12:19:06.318Z,10.30
2022-11-15T12:22:40.100Z,8.27
2022-11-15T12:25:46.946Z,7.83
2022-11-15T12:29:05.992Z,10.43
2022-11-15T12:32:00.915Z,12.47
2022-11-15T12:34:51.276Z,13.03
2022-11-15T12:37:45.083Z,14.87
2022-11-15T12:41:28.597Z,7.53
2022-11-15T12:44:50.973Z,12.63
2022-11-15T12:47:38.431Z,7.97
2022-11-15T12:50:57.314Z,9.50
2022-11-15T12:53:44.843Z,5.93
2022-11-15T12:56:33.046Z,10.27
2022-11-15T12:59:56.177Z,15.57
2022-11-15T13:02:46.798Z,10.37
2022-11-15T13:05:36.961Z,6.27
2022-11-15T13:08:45.105Z,10.63
2022-11-15T13:12:02.841Z,9.03
2022-11-15T13:15:13.425Z,8.23
2022-11-15T13:18:30.649Z,8.43
2022-11-15T13:21:44.002Z,7.43
2022-11-15T13:24:31.507Z,10.47
2022-11-15T13:27:21.494Z,11.17
2022-11-15T13:30:32.115Z,10.77
2022-11-15T13:33:37.985Z,8.00
2022-11-15T13:36:35.417Z,6.37
2022-11-15T13:39:35.157Z,10.17
2022-11-15T13:42:22.800Z,6.83
2022-11-15T13:45:18.236Z,9.30
2022-11-15T13:48:07.359Z,12.07
2022-11-15T13:50:54.912Z,8.67
2022-11-15T13:53:48.273Z,10.17
2022-11-15T13:56:36.946Z,11.63
2022-11-15T13:59:33.257Z,8.73
2022-11-15T14:02:37.091Z,5.33
2022-11-15T14:05:28.017Z,7.37
2022-11-15T14:08:21.619Z,7.80
2022-11-15T14:11:18.741Z,5.87
2022-11-15T14:14:09.044Z,5.53
2022-11-15T14:17:02.290Z,6.40
2022-11-15T14:19:50.316Z,13.57
2022-11-15T14:22:38.927Z,7.70
2022-11-15T14:25:36.716Z,6.33
2022-11-15T14:28:24.276Z,7.33
2022-11-15T14:31:14.271Z,9.73
2022-11-15T14:34:01.747Z,9.53
2022-11-15T14:36:49.672Z,6.13
2022-11-15T14:39:37.135Z,5.77
2022-11-15T14:42:26.125Z,6.90
2022-11-15T14:45:22.901Z,6.47
2022-11-15T14:48:10.778Z,4.77
2022-11-15T14:50:58.291Z,6.97
2022-11-15T14:53:47.605Z,9.20
2022-11-15T14:56:35.169Z,7.97
2022-11-15T14:59:22.806Z,6.67
2022-11-15T15:02:30.642Z,5.67
2022-11-15T15:05:25.427Z,10.23
2022-11-15T15:08:13.078Z,9.30
2022-11-15T15:11:00.877Z,8.00
2022-11-15T15:13:48.752Z,7.30
2022-11-15T15:16:36.401Z,7.43
2022-11-15T15:19:26.218Z,7.40
2022-11-15T15:22:18.966Z,11.57
2022-11-15T15:25:35.947Z,6.17
2022-11-15T15:28:23.614Z,6.97
2022-11-15T15:31:12.013Z,8.13
2022-11-15T15:33:59.632Z,7.30
2022-11-15T15:36:47.190Z,8.67
2022-11-15T15:39:34.770Z,8.10
2022-11-15T15:42:24.021Z,8.07
2022-11-15T15:45:12.104Z,5.83
2022-11-15T15:47:59.607Z,4.80
2022-11-15T15:50:48.182Z,5.00
2022-11-15T15:53:36.231Z,7.27
2022-11-15T15:56:23.759Z,8.50
2022-11-15T15:59:11.391Z,5.57
2022-11-15T16:01:59.166Z,6.67
2022-11-15T16:04:46.836Z,6.70
2022-11-15T16:07:34.370Z,15.17
2022-11-15T16:10:29.698Z,5.90
2022-11-15T16:13:18.580Z,9.17
2022-11-15T16:16:13.573Z,6.00
2022-11-15T16:19:01.876Z,5.63
2022-11-15T16:21:49.792Z,7.20
2022-11-15T16:24:37.312Z,5.83
2022-11-15T16:27:25.562Z,5.10
2022-11-15T16:30:17.744Z,7.27
2022-11-15T16:33:05.659Z,5.80
2022-11-15T16:35:53.376Z,6.77
2022-11-15T16:38:40.862Z,5.23
2022-11-15T16:41:28.488Z,4.57
2022-11-15T16:44:16.277Z,7.40
2022-11-15T16:47:07.171Z,7.07
2022-11-15T16:49:54.577Z,12.63
2022-11-15T16:52:42.138Z,8.07
2022-11-15T16:55:30.660Z,5.07
2022-11-15T16:58:18.447Z,7.10
2022-11-15T17:01:06.110Z,9.77
2022-11-15T17:03:55.062Z,5.53
2022-11-15T17:06:47.254Z,11.70
2022-11-15T17:09:35.136Z,7.30
2022-11-15T17:12:22.607Z,8.17
2022-11-15T17:15:13.722Z,10.23
2022-11-15T17:18:01.208Z,6.67
2022-11-15T17:20:48.701Z,9.93
2022-11-15T17:23:36.457Z,8.67
2022-11-15T17:26:30.334Z,11.70
2022-11-15T17:29:18.952Z,6.10
2022-11-15T17:32:06.402Z,5.60
2022-11-15T17:34:53.941Z,5.63
2022-11-15T17:37:41.406Z,7.07
2022-11-15T17:40:28.859Z,5.10
2022-11-15T17:43:16.908Z,4.20
2022-11-15T17:46:12.526Z,6.37
2022-11-15T17:49:00.142Z,6.47
2022-11-15T17:51:50.157Z,7.37
2022-11-15T17:54:37.923Z,9.43
2022-11-15T17:57:25.470Z,8.07
2022-11-15T18:00:13.787Z,5.67
2022-11-15T18:03:01.193Z,5.33
2022-11-15T18:05:48.637Z,7.80
2022-11-15T18:08:38.212Z,4.67
2022-11-15T18:11:33.492Z,4.90
2022-11-15T18:14:21.815Z,8.10
2022-11-15T18:17:09.836Z,6.93
2022-11-15T18:19:57.515Z,7.30
2022-11-15T18:22:45.116Z,6.53
2022-11-15T18:25:32.734Z,4.80
2022-11-15T18:28:20.498Z,5.40
2022-11-15T18:31:29.116Z,5.07
2022-11-15T18:34:18.071Z,14.53
2022-11-15T18:37:05.727Z,8.27
2022-11-15T18:39:54.290Z,4.83
2022-11-15T18:42:41.827Z,8.83
2022-11-15T18:45:29.361Z,5.73
2022-11-15T18:48:16.834Z,9.13
2022-11-15T18:51:11.030Z,12.50
2022-11-15T18:54:01.607Z,5.30
2022-11-15T18:56:49.126Z,6.47
2022-11-15T18:59:36.618Z,15.83
2022-11-15T19:02:24.468Z,5.33
2022-11-15T19:05:13.050Z,5.93
2022-11-15T19:08:00.582Z,4.40
2022-11-15T19:10:47.961Z,12.67
2022-11-15T19:13:35.822Z,6.80
2022-11-15T19:16:25.277Z,6.37
2022-11-15T19:19:17.047Z,7.93
2022-11-15T19:22:04.512Z,8.40
2022-11-15T19:24:51.998Z,6.10
2022-11-15T19:27:39.573Z,11.17
2022-11-15T19:30:27.187Z,5.57
2022-11-15T19:33:14.811Z,6.30
2022-11-15T19:36:05.805Z,9.50
2022-11-15T19:38:55.483Z,6.97
2022-11-15T19:41:44.651Z,6.40
2022-11-15T19:44:32.143Z,5.73
2022-11-15T19:47:19.635Z,7.77
2022-11-15T19:50:07.711Z,7.63
2022-11-15T19:52:55.167Z,6.27
2022-11-15T19:55:43.399Z,6.83
2022-11-15T19:58:32.075Z,5.43
2022-11-15T20:01:26.218Z,5.53
2022-11-15T20:04:13.800Z,7.23
2022-11-15T20:07:01.517Z,9.03
2022-11-15T20:09:49.178Z,7.80
2022-11-15T20:12:36.686Z,5.87
2022-11-15T20:15:24.205Z,8.50
2022-11-15T20:18:11.667Z,6.63
2022-11-15T20:20:59.817Z,7.30
2022-11-15T20:23:48.162Z,8.57
2022-11-15T20:26:35.921Z,11.20
2022-11-15T20:29:24.047Z,12.53
2022-11-15T20:32:12.288Z,7.03
2022-11-15T20:34:59.826Z,10.03
2022-11-15T20:37:47.387Z,18.60
2022-11-15T20:40:35.153Z,7.97
2022-11-15T20:43:22.647Z,4.50
2022-11-15T20:46:12.289Z,6.07
2022-11-15T20:49:00.066Z,11.33
2022-11-15T20:51:47.684Z,6.40
2022-11-15T20:54:35.527Z,5.77
2022-11-15T20:57:22.962Z,4.10
2022-11-15T21:00:11.507Z,3.47
2022-11-15T21:02:58.965Z,4.30
2022-11-15T21:05:46.386Z,4.97
2022-11-15T21:08:53.928Z,5.70
2022-11-15T21:12:00.640Z,3.70
2022-11-15T21:14:49.133Z,7.27
2022-11-15T21:17:36.631Z,7.60
2022-11-15T21:20:24.126Z,3.80
2022-11-15T21:23:12.616Z,4.97
2022-11-15T21:26:00.127Z,5.00
2022-11-15T21:28:47.567Z,4.97
2022-11-15T21:31:35.337Z,3.43
2022-11-15T21:34:22.893Z,3.27
2022-11-15T21:37:11.093Z,4.87
2022-11-15T21:39:58.538Z,6.73
2022-11-15T21:42:45.976Z,5.10
2022-11-15T21:45:33.482Z,3.70
2022-11-15T21:48:21.026Z,3.67
2022-11-15T21:51:12.189Z,3.17
2022-11-15T21:54:00.565Z,3.07
2022-11-15T21:56:48.063Z,7.57
2022-11-15T21:59:55.432Z,4.87
2022-11-15T22:02:42.867Z,4.70
2022-11-15T22:05:30.332Z,6.47
2022-11-15T22:08:17.787Z,4.00
2022-11-15T22:11:05.750Z,4.13
2022-11-15T22:13:53.307Z,3.27
2022-11-15T22:16:41.189Z,5.30
2022-11-15T22:19:28.717Z,3.50
2022-11-15T22:22:16.228Z,7.10
2022-11-15T22:25:04.162Z,8.67
2022-11-15T22:27:53.413Z,3.37
2022-11-15T22:30:41.232Z,4.27
2022-11-15T22:33:31.917Z,5.40
2022-11-15T22:36:19.517Z,3.30
2022-11-15T22:39:07.147Z,3.27
2022-11-15T22:41:55.248Z,5.97
2022-11-15T22:44:42.729Z,2.53
2022-11-15T22:47:30.231Z,7.43
2022-11-15T22:50:18.582Z,5.37
2022-11-15T22:53:06.093Z,4.27
2022-11-15T22:55:57.889Z,4.73
2022-11-15T22:58:45.447Z,4.10
2022-11-15T23:01:32.964Z,3.83
2022-11-15T23:04:20.607Z,3.43
2022-11-15T23:07:08.268Z,3.57
2022-11-15T23:10:15.757Z,4.23
2022-11-15T23:13:19.092Z,3.13
2022-11-15T23:16:22.763Z,4.13
2022-11-15T23:19:12.972Z,3.33
2022-11-15T23:22:19.337Z,3.40
2022-11-15T23:25:07.322Z,3.37
2022-11-15T23:27:54.855Z,6.90
2022-11-15T23:31:01.232Z,2.97
2022-11-15T23:33:57.854Z,5.60
2022-11-15T23:36:45.534Z,13.47
2022-11-15T23:39:33.383Z,3.50
2022-11-15T23:42:20.932Z,4.03
2022-11-15T23:45:08.867Z,5.00
2022-11-15T23:48:01.143Z,3.40
2022-11-15T23:50:49.452Z,4.57
2022-11-15T23:53:37.549Z,4.50
2022-11-15T23:56:26.078Z,4.87
2022-11-15T23:59:13.634Z,3.77
